Time;durP1;ratioP1;P1;durP2;ratioP2;P2;SDS_P1;SDS_P2;PMS_P1;PMS_P2;Temp;Humidity;BMP_temperature;BMP_pressure;BME280_temperature;BME280_humidity;BME280_pressure;Samples;Min_cycle;Max_cycle;Signal;HPM_P1;HPM_P2
2021/07/05 00:00:53;;;;;;;10.32;9.33;;;;;;;21.41;97.31;100317.27;1647276;87;21030;-88
2021/07/05 00:03:22;;;;;;;11.78;9.10;;;;;;;21.41;97.64;100317.27;1657112;85;21051;-84
2021/07/05 00:05:49;;;;;;;9.98;9.05;;;;;;;21.41;97.81;100317.80;1648286;85;20913;-89
2021/07/05 00:08:17;;;;;;;11.18;9.98;;;;;;;21.40;98.05;100320.11;1647769;86;20942;-87
2021/07/05 00:10:44;;;;;;;10.00;9.10;;;;;;;21.36;98.38;100310.90;1645134;86;20988;-91
2021/07/05 00:13:10;;;;;;;10.18;9.18;;;;;;;21.35;98.88;100311.39;1646902;86;21626;-84
2021/07/05 00:15:38;;;;;;;10.58;9.35;;;;;;;21.33;99.27;100317.86;1645741;86;21004;-85
2021/07/05 00:18:07;;;;;;;13.03;10.00;;;;;;;21.31;99.65;100313.27;1646401;86;20920;-89
2021/07/05 00:20:38;;;;;;;11.40;10.30;;;;;;;21.30;100.00;100317.72;1640430;87;22011;-89
2021/07/05 00:23:06;;;;;;;10.95;9.65;;;;;;;21.27;100.00;100308.02;1644436;86;21060;-89
2021/07/05 00:25:33;;;;;;;10.78;9.65;;;;;;;21.26;100.00;100314.28;1646362;86;20976;-88
2021/07/05 00:28:02;;;;;;;10.85;9.70;;;;;;;21.22;100.00;100303.27;1646836;87;20968;-84
2021/07/05 00:30:32;;;;;;;13.10;10.68;;;;;;;21.19;100.00;100295.70;1657783;85;21031;-86
2021/07/05 00:32:58;;;;;;;10.15;9.15;;;;;;;21.16;100.00;100292.59;1647581;86;21132;-88
2021/07/05 00:35:27;;;;;;;11.18;10.18;;;;;;;21.17;100.00;100282.37;1645171;87;21056;-88
2021/07/05 00:37:54;;;;;;;11.63;10.43;;;;;;;21.15;100.00;100289.16;1623387;86;20976;-94
2021/07/05 00:40:21;;;;;;;11.75;10.50;;;;;;;21.12;100.00;100285.56;1645764;86;21020;-92
2021/07/05 00:42:48;;;;;;;12.45;11.25;;;;;;;21.11;100.00;100289.19;1645583;86;21051;-85
2021/07/05 00:45:15;;;;;;;12.88;11.57;;;;;;;21.10;100.00;100288.36;1642275;86;21718;-85
2021/07/05 00:47:44;;;;;;;13.38;11.43;;;;;;;21.09;100.00;100288.56;1643805;87;21095;-87
2021/07/05 00:50:12;;;;;;;12.70;11.45;;;;;;;21.09;100.00;100291.20;1642268;86;21622;-89
2021/07/05 00:52:41;;;;;;;12.88;11.57;;;;;;;21.09;100.00;100291.20;1636864;87;21005;-84
2021/07/05 00:55:09;;;;;;;15.48;12.35;;;;;;;21.06;100.00;100292.31;1648090;87;20916;-87
2021/07/05 00:57:36;;;;;;;13.55;12.15;;;;;;;21.07;100.00;100301.05;1645914;86;21161;-86
2021/07/05 01:00:07;;;;;;;14.18;12.70;;;;;;;21.07;100.00;100298.41;1644395;86;21047;-89
2021/07/05 01:02:33;;;;;;;14.10;12.40;;;;;;;21.04;100.00;100298.28;1632012;87;20968;-86
2021/07/05 01:05:00;;;;;;;14.95;13.40;;;;;;;21.03;100.00;100298.44;1645500;87;21112;-86
2021/07/05 01:07:29;;;;;;;17.45;13.32;;;;;;;21.03;100.00;100301.08;1648411;87;21019;-85
2021/07/05 01:09:56;;;;;;;15.63;13.90;;;;;;;21.03;100.00;100295.80;1635611;87;21172;-86
2021/07/05 01:12:24;;;;;;;14.95;13.45;;;;;;;21.02;100.00;100299.45;1621306;87;20964;-90
2021/07/05 01:14:52;;;;;;;17.45;14.03;;;;;;;21.00;100.00;100293.52;1644233;87;20980;-90
2021/07/05 01:17:19;;;;;;;15.00;12.93;;;;;;;20.97;100.00;100294.70;1648107;87;21039;-89
2021/07/05 01:19:49;;;;;;;16.27;13.93;;;;;;;20.96;100.00;100300.17;1641181;87;21084;-89
2021/07/05 01:22:16;;;;;;;16.70;14.47;;;;;;;20.96;100.00;100302.81;1651404;87;21804;-85
2021/07/05 01:24:45;;;;;;;15.90;14.05;;;;;;;20.96;100.00;100305.45;1637042;86;20964;-92
2021/07/05 01:27:11;;;;;;;18.27;14.30;;;;;;;20.94;100.00;100304.29;1638492;87;21011;-87
2021/07/05 01:29:39;;;;;;;18.73;13.55;;;;;;;20.96;100.00;100304.13;1637554;86;20981;-81
2021/07/05 01:32:07;;;;;;;14.83;13.32;;;;;;;20.97;100.00;100304.42;1646860;87;20920;-84
2021/07/05 01:34:35;;;;;;;15.63;14.00;;;;;;;20.99;100.00;100302.45;1638856;87;21103;-84
2021/07/05 01:37:04;;;;;;;16.30;13.80;;;;;;;21.00;100.00;100302.75;1628946;87;21015;-85
2021/07/05 01:39:30;;;;;;;16.73;13.75;;;;;;;21.01;100.00;100301.27;1650442;87;21012;-82
2021/07/05 01:41:57;;;;;;;18.82;13.80;;;;;;;21.03;100.00;100302.40;1651448;87;21487;-85
2021/07/05 01:44:24;;;;;;;19.85;14.75;;;;;;;21.05;100.00;100301.74;1649784;87;20908;-82
2021/07/05 01:46:54;;;;;;;18.85;14.43;;;;;;;21.04;100.00;100296.95;1629688;87;21113;-79
2021/07/05 01:49:21;;;;;;;17.40;14.58;;;;;;;21.03;100.00;100296.62;1638634;87;21107;-82
2021/07/05 01:51:49;;;;;;;15.72;13.85;;;;;;;21.04;100.00;100305.37;1634178;87;20964;-86
2021/07/05 01:54:15;;;;;;;18.00;14.60;;;;;;;21.03;100.00;100303.22;1651076;87;21012;-86
2021/07/05 01:56:43;;;;;;;16.57;14.80;;;;;;;21.01;100.00;100296.00;1629781;87;21653;-93
2021/07/05 01:59:10;;;;;;;17.40;14.03;;;;;;;21.00;100.00;100303.58;1645997;87;21873;-81
2021/07/05 02:01:37;;;;;;;17.12;14.65;;;;;;;21.01;100.00;100307.87;1630917;87;20901;-87
2021/07/05 02:04:05;;;;;;;18.50;14.78;;;;;;;21.02;100.00;100310.02;1635582;87;20987;-88
2021/07/05 02:06:32;;;;;;;18.82;15.38;;;;;;;21.02;100.00;100312.65;1640599;87;21526;-83
2021/07/05 02:09:01;;;;;;;19.30;14.90;;;;;;;21.03;100.00;100306.36;1643683;87;20976;-90
2021/07/05 02:11:29;;;;;;;16.02;13.93;;;;;;;21.04;100.00;100306.69;1651328;86;21165;-88
2021/07/05 02:13:56;;;;;;;17.07;14.80;;;;;;;21.01;100.00;100299.95;1646584;86;20961;-81
2021/07/05 02:16:23;;;;;;;17.07;14.83;;;;;;;21.01;100.00;100306.55;1637889;87;20976;-88
2021/07/05 02:18:49;;;;;;;16.57;14.80;;;;;;;21.01;100.00;100307.05;1641075;86;21136;-90
2021/07/05 02:21:16;;;;;;;19.20;14.28;;;;;;;21.00;100.00;100309.34;1656832;86;20908;-87
2021/07/05 02:23:43;;;;;;;16.23;13.85;;;;;;;20.98;100.00;100310.03;1660581;86;21118;-87
2021/07/05 02:26:11;;;;;;;17.80;14.53;;;;;;;20.96;100.00;100309.41;1660432;85;20912;-88
2021/07/05 02:28:38;;;;;;;19.25;15.00;;;;;;;20.95;100.00;100311.22;1660720;85;21011;-88
2021/07/05 02:31:06;;;;;;;18.07;14.30;;;;;;;20.95;100.00;100316.98;1660473;86;21064;-84
2021/07/05 02:33:34;;;;;;;20.40;14.53;;;;;;;20.97;100.00;100311.84;1660749;86;20927;-85
2021/07/05 02:36:04;;;;;;;16.30;13.43;;;;;;;20.96;100.00;100310.20;1660478;86;21203;-89
2021/07/05 02:38:34;;;;;;;18.25;14.50;;;;;;;20.96;100.00;100313.36;1660569;86;20912;-89
2021/07/05 02:41:02;;;;;;;16.77;13.78;;;;;;;20.96;100.00;100320.75;1660740;85;20960;-84
2021/07/05 02:43:30;;;;;;;18.77;14.63;;;;;;;20.96;100.00;100314.16;1660731;86;21463;-84
2021/07/05 02:46:02;;;;;;;16.48;14.13;;;;;;;20.95;100.00;100311.22;1686308;85;21082;-89
2021/07/05 02:48:32;;;;;;;15.83;13.68;;;;;;;20.94;100.00;100308.24;1686213;84;21124;-84
2021/07/05 02:51:04;;;;;;;18.20;14.00;;;;;;;20.94;100.00;100308.24;1635744;87;21038;-84
2021/07/05 02:53:33;;;;;;;18.12;14.60;;;;;;;20.96;100.00;100316.00;1635308;87;21553;-86
2021/07/05 02:56:03;;;;;;;15.43;13.68;;;;;;;20.96;100.00;100316.00;1636465;87;20996;-92
2021/07/05 02:58:32;;;;;;;20.50;13.83;;;;;;;20.95;100.00;100310.39;1670536;85;21031;-88
2021/07/05 03:01:00;;;;;;;17.52;13.43;;;;;;;20.91;100.00;100301.18;1651938;86;21130;-83
2021/07/05 03:03:27;;;;;;;16.20;14.18;;;;;;;20.87;100.00;100299.39;1656326;86;21090;-90
2021/07/05 03:05:54;;;;;;;17.77;13.78;;;;;;;20.86;100.00;100306.17;1656148;86;21553;-84
2021/07/05 03:08:21;;;;;;;18.17;14.00;;;;;;;20.85;100.00;100309.30;1656043;86;21043;-85
2021/07/05 03:10:47;;;;;;;17.98;14.15;;;;;;;20.83;100.00;100304.72;1656194;86;21035;-83
2021/07/05 03:13:17;;;;;;;18.25;14.07;;;;;;;20.82;100.00;100311.47;1656321;86;20872;-84
2021/07/05 03:15:45;;;;;;;16.85;13.83;;;;;;;20.81;100.00;100313.77;1656070;86;21060;-85
2021/07/05 03:18:11;;;;;;;18.57;13.95;;;;;;;20.79;100.00;100317.09;1656224;86;20947;-88
2021/07/05 03:20:43;;;;;;;19.87;14.28;;;;;;;20.73;100.00;100315.16;1635277;86;21086;-83
2021/07/05 03:23:12;;;;;;;15.30;12.43;;;;;;;20.70;100.00;100313.70;1629910;88;21140;-89
2021/07/05 03:25:41;;;;;;;18.65;13.93;;;;;;;20.67;100.00;100312.73;1629887;88;21131;-90
2021/07/05 03:28:11;;;;;;;17.98;12.63;;;;;;;20.64;100.00;100316.22;1629780;87;20972;-84
2021/07/05 03:30:41;;;;;;;17.52;13.38;;;;;;;20.61;100.00;100313.92;1629966;87;21032;-82
2021/07/05 03:33:08;;;;;;;16.35;13.13;;;;;;;20.59;100.00;100310.12;1630071;88;21034;-82
2021/07/05 03:35:36;;;;;;;15.35;11.68;;;;;;;20.56;100.00;100315.26;1629728;88;21465;-77
2021/07/05 03:38:06;;;;;;;16.42;12.70;;;;;;;20.53;100.00;100316.92;1617059;88;21141;-81
2021/07/05 03:40:34;;;;;;;15.38;11.97;;;;;;;20.49;100.00;100317.44;1629724;88;20988;-83
2021/07/05 03:43:03;;;;;;;16.42;12.95;;;;;;;20.46;100.00;100314.66;1629865;88;21648;-87
2021/07/05 03:45:33;;;;;;;14.87;12.88;;;;;;;20.45;100.00;100316.95;1629944;88;21060;-90
2021/07/05 03:48:00;;;;;;;15.40;12.40;;;;;;;20.44;100.00;100322.41;1629945;88;21317;-86
2021/07/05 03:50:27;;;;;;;15.05;12.18;;;;;;;20.40;100.00;100314.03;1630006;87;21126;-83
2021/07/05 03:52:53;;;;;;;13.90;12.33;;;;;;;20.38;100.00;100317.34;1629660;87;22312;-80
2021/07/05 03:55:23;;;;;;;15.68;13.13;;;;;;;20.35;100.00;100314.23;1629880;88;21234;-82
2021/07/05 03:57:51;;;;;;;15.32;12.40;;;;;;;20.33;100.00;100322.30;1629963;88;20961;-81
2021/07/05 04:00:24;;;;;;;14.85;12.68;;;;;;;20.24;100.00;100312.75;1629989;88;21075;-83
2021/07/05 04:02:51;;;;;;;15.95;13.45;;;;;;;20.17;100.00;100318.37;1629897;87;21133;-79
2021/07/05 04:05:18;;;;;;;15.05;13.50;;;;;;;20.02;100.00;100314.34;1629833;88;21139;-82
2021/07/05 04:07:47;;;;;;;20.68;13.70;;;;;;;19.90;100.00;100328.04;1629947;88;21004;-85
2021/07/05 04:10:14;;;;;;;15.35;13.10;;;;;;;19.73;100.00;100320.67;1629965;88;21546;-83
2021/07/05 04:12:42;;;;;;;19.12;13.72;;;;;;;19.62;100.00;100320.21;1630095;88;21063;-82
2021/07/05 04:15:11;;;;;;;16.57;13.72;;;;;;;19.51;100.00;100318.73;1630126;87;21043;-89
2021/07/05 04:17:37;;;;;;;17.15;13.72;;;;;;;19.41;100.00;100315.45;1629923;88;21000;-87
2021/07/05 04:20:08;;;;;;;15.85;13.55;;;;;;;19.37;100.00;100319.37;1640298;85;21074;-84
2021/07/05 04:22:35;;;;;;;19.20;13.20;;;;;;;19.33;100.00;100320.70;1635107;86;21115;-87
2021/07/05 04:25:02;;;;;;;15.32;13.00;;;;;;;19.29;100.00;100318.90;1656384;86;21581;-86
2021/07/05 04:27:30;;;;;;;15.35;12.68;;;;;;;19.27;100.00;100318.74;1656461;86;21074;-90
2021/07/05 04:29:57;;;;;;;15.65;13.80;;;;;;;19.27;100.00;100319.53;1656299;86;21019;-84
2021/07/05 04:32:27;;;;;;;15.43;12.90;;;;;;;19.28;100.00;100319.05;1656394;86;21518;-87
2021/07/05 04:34:56;;;;;;;16.23;12.85;;;;;;;19.31;100.00;100325.30;1656240;86;21068;-91
2021/07/05 04:37:23;;;;;;;16.30;14.28;;;;;;;19.33;100.00;100331.23;1656248;86;21024;-84
2021/07/05 04:39:50;;;;;;;19.45;14.33;;;;;;;19.38;100.00;100338.13;1656200;86;21111;-81
2021/07/05 04:42:16;;;;;;;18.05;14.07;;;;;;;19.40;100.00;100337.52;1656232;86;21036;-84
2021/07/05 04:44:43;;;;;;;19.07;14.70;;;;;;;19.41;100.00;100338.65;1656204;86;21091;-89
2021/07/05 04:47:12;;;;;;;19.65;15.20;;;;;;;19.43;100.00;100343.24;1656129;86;21093;-88
2021/07/05 04:49:39;;;;;;;17.75;14.60;;;;;;;19.41;100.00;100345.23;1656193;86;21046;-89
2021/07/05 04:52:06;;;;;;;18.00;14.83;;;;;;;19.41;100.00;100354.44;1656144;86;21114;-87
2021/07/05 04:54:48;;;;;;;17.23;15.35;;;;;;;19.39;100.00;100357.71;1656369;86;20960;-86
2021/07/05 04:57:06;;;;;;;20.30;16.55;;;;;;;19.38;100.00;100360.49;1633244;86;21111;-82
2021/07/05 04:59:33;;;;;;;19.82;15.65;;;;;;;19.38;100.00;100365.75;1655986;86;21530;-82
2021/07/05 05:02:02;;;;;;;15.58;13.95;;;;;;;19.37;100.00;100363.61;1635877;86;20933;-83
2021/07/05 05:04:31;;;;;;;17.12;14.23;;;;;;;19.37;100.00;100378.58;1656382;86;21075;-84
2021/07/05 05:06:58;;;;;;;18.95;14.80;;;;;;;19.38;100.00;100380.23;1656447;86;20876;-86
2021/07/05 05:09:25;;;;;;;19.40;14.73;;;;;;;19.38;100.00;100384.17;1656314;86;21076;-87
2021/07/05 05:11:53;;;;;;;20.90;15.75;;;;;;;19.36;100.00;100379.58;1656342;86;20971;-88
2021/07/05 05:14:23;;;;;;;19.37;15.43;;;;;;;19.35;100.00;100381.38;1656425;86;21095;-86
2021/07/05 05:16:50;;;;;;;18.40;15.20;;;;;;;19.35;100.00;100383.19;1656573;86;21269;-86
2021/07/05 05:19:17;;;;;;;18.10;15.40;;;;;;;19.35;100.00;100381.88;1656473;86;20912;-88
2021/07/05 05:21:44;;;;;;;19.98;16.07;;;;;;;19.33;100.00;100388.63;1648534;86;21015;-85
2021/07/05 05:24:11;;;;;;;19.25;15.40;;;;;;;19.35;100.00;100398.48;1643412;86;21076;-82
2021/07/05 05:26:39;;;;;;;21.50;15.70;;;;;;;19.37;100.00;100395.19;1648819;86;20901;-85
2021/07/05 05:29:07;;;;;;;22.02;17.55;;;;;;;19.39;100.00;100397.19;1650985;86;21070;-86
2021/07/05 05:31:35;;;;;;;22.70;17.42;;;;;;;19.38;100.00;100394.21;1651319;86;20901;-85
2021/07/05 05:34:05;;;;;;;22.40;17.12;;;;;;;19.37;100.00;100396.99;1648596;86;21547;-86
2021/07/05 05:36:34;;;;;;;22.10;17.62;;;;;;;19.38;100.00;100392.89;1647814;86;21544;-85
2021/07/05 05:39:06;;;;;;;;;;;;;;;19.35;100.00;100398.48;1645705;86;20999;-88
2021/07/05 05:41:35;;;;;;;19.60;17.50;;;;;;;19.29;100.00;100393.88;1650093;86;20191;-82
2021/07/05 05:44:04;;;;;;;20.85;17.85;;;;;;;19.22;100.00;100392.88;1650109;86;21026;-79
2021/07/05 05:46:33;;;;;;;18.57;16.67;;;;;;;19.22;100.00;100397.31;1649986;86;21012;-83
2021/07/05 05:49:02;;;;;;;23.77;17.35;;;;;;;19.21;100.00;100392.55;1648022;86;21060;-87
2021/07/05 05:51:34;;;;;;;19.87;17.07;;;;;;;19.22;100.00;100401.27;1652430;86;20955;-82
2021/07/05 05:54:05;;;;;;;;;;;;;;;19.25;100.00;100401.77;1650113;86;21118;-87
2021/07/05 05:56:47;;;;;;;18.55;16.67;;;;;;;19.29;100.00;100403.58;1649715;86;20110;-89
2021/07/05 05:59:38;;;;;;;20.70;16.90;;;;;;;19.26;100.00;100403.42;1642666;86;20943;-80
2021/07/05 06:02:23;;;;;;;20.45;16.82;;;;;;;19.28;100.00;100408.02;1617499;87;22030;-84
2021/07/05 06:05:00;;;;;;;20.88;16.42;;;;;;;19.31;100.00;100405.05;1605847;88;21045;-87
2021/07/05 06:07:29;;;;;;;19.40;16.80;;;;;;;19.31;100.00;100401.11;1635277;86;20944;-89
2021/07/05 06:09:55;;;;;;;18.77;16.77;;;;;;;19.36;100.00;100401.95;1646054;86;21628;-90
2021/07/05 06:12:33;;;;;;;20.60;16.05;;;;;;;19.42;100.00;100394.73;1647547;86;21435;-90
2021/07/05 06:15:01;;;;;;;22.80;17.20;;;;;;;19.43;100.00;100394.56;1648913;86;20908;-84
2021/07/05 06:17:29;;;;;;;18.15;16.25;;;;;;;19.48;100.00;100392.77;1642793;85;21538;-82
2021/07/05 06:19:58;;;;;;;19.55;16.93;;;;;;;19.52;100.00;100393.59;1644453;85;21122;-90
2021/07/05 06:22:29;;;;;;;18.20;15.58;;;;;;;19.56;100.00;100382.22;1651709;86;20956;-87
2021/07/05 06:24:57;;;;;;;;;;;;;;;19.59;100.00;100384.55;1651247;86;20940;-91
2021/07/05 06:27:28;;;;;;;16.32;14.73;;;;;;;19.63;100.00;100385.84;1627407;86;20425;-88
2021/07/05 06:30:02;;;;;;;16.80;15.10;;;;;;;19.64;100.00;100381.40;1648179;85;21459;-84
2021/07/05 06:32:43;;;;;;;17.52;14.38;;;;;;;19.64;100.00;100382.23;1649322;86;21028;-92
2021/07/05 06:35:09;;;;;;;16.00;14.33;;;;;;;19.65;100.00;100368.58;1620616;86;21412;-82
2021/07/05 06:37:40;;;;;;;16.37;13.53;;;;;;;19.66;100.00;100360.98;1648315;86;20980;-81
2021/07/05 06:40:10;;;;;;;15.55;13.72;;;;;;;19.69;100.00;100355.42;1649655;86;21457;-81
2021/07/05 06:42:39;;;;;;;15.25;12.30;;;;;;;19.74;100.00;100349.14;1649197;86;20946;-80
2021/07/05 06:45:06;;;;;;;12.93;11.30;;;;;;;19.66;100.00;100346.51;1648700;85;21223;-85
2021/07/05 06:47:41;;;;;;;9.83;8.93;;;;;;;19.67;100.00;100342.41;1648577;86;21626;-86
2021/07/05 06:50:10;;;;;;;11.12;10.03;;;;;;;19.68;100.00;100333.53;1646381;86;21013;-84
2021/07/05 06:52:40;;;;;;;11.28;10.13;;;;;;;19.75;100.00;100332.36;1629444;86;21538;-86
2021/07/05 06:55:07;;;;;;;9.75;8.70;;;;;;;19.81;100.00;100325.94;1595019;87;21083;-83
2021/07/05 06:57:35;;;;;;;10.90;9.85;;;;;;;19.86;100.00;100330.19;1519115;86;21765;-79
2021/07/05 07:00:10;;;;;;;10.98;9.98;;;;;;;19.94;100.00;100323.56;1647069;86;21060;-83
2021/07/05 07:02:38;;;;;;;12.53;11.30;;;;;;;20.05;100.00;100319.27;1647237;87;21067;-84
2021/07/05 07:05:10;;;;;;;10.98;9.88;;;;;;;20.15;100.00;100319.55;1647029;87;21127;-86
2021/07/05 07:07:42;;;;;;;;;;;;;;;20.24;100.00;100314.56;1649982;86;21094;-87
2021/07/05 07:10:11;;;;;;;12.28;11.08;;;;;;;20.29;100.00;100307.84;1637275;87;21146;-87
2021/07/05 07:12:42;;;;;;;12.40;11.00;;;;;;;20.35;100.00;100306.33;1646798;87;21151;-89
2021/07/05 07:15:11;;;;;;;12.18;10.98;;;;;;;20.44;100.00;100311.37;1646854;87;21638;-83
2021/07/05 07:17:57;;;;;;;10.53;9.48;;;;;;;20.49;100.00;100306.40;1646895;86;21689;-87
2021/07/05 07:20:20;;;;;;;11.65;10.65;;;;;;;20.60;100.00;100302.55;1647025;86;21162;-83
2021/07/05 07:22:47;;;;;;;9.63;8.75;;;;;;;20.73;100.00;100303.30;1641101;87;21172;-90
2021/07/05 07:25:28;;;;;;;9.88;8.88;;;;;;;20.86;100.00;100303.05;1642689;87;21039;-90
2021/07/05 07:27:54;;;;;;;9.73;8.45;;;;;;;20.92;100.00;100301.02;1642361;86;21149;-88
2021/07/05 07:30:21;;;;;;;10.10;9.18;;;;;;;20.94;100.00;100300.33;1641940;86;21161;-81
2021/07/05 07:32:48;;;;;;;10.45;8.83;;;;;;;20.98;100.00;100300.80;1644684;85;21094;-84
2021/07/05 07:35:18;;;;;;;8.80;8.00;;;;;;;20.98;100.00;100305.59;1642684;86;21096;-86
2021/07/05 07:37:49;;;;;;;9.60;8.70;;;;;;;20.96;100.00;100297.53;1644573;86;21067;-84
2021/07/05 07:40:33;;;;;;;9.73;8.65;;;;;;;20.96;100.00;100297.53;1618051;87;21079;-87
2021/07/05 07:43:00;;;;;;;8.40;7.62;;;;;;;20.92;100.00;100290.96;1644575;85;21004;-84
2021/07/05 07:45:28;;;;;;;8.00;7.30;;;;;;;20.89;100.00;100292.14;1631872;86;21036;-81
2021/07/05 07:47:54;;;;;;;10.45;7.85;;;;;;;20.93;100.00;100295.25;1648537;85;21111;-87
2021/07/05 07:50:21;;;;;;;9.00;7.62;;;;;;;21.02;100.00;100291.55;1642941;87;21107;-86
2021/07/05 07:52:48;;;;;;;8.50;7.70;;;;;;;21.10;100.00;100289.69;1644753;87;21748;-86
2021/07/05 07:55:16;;;;;;;8.78;7.55;;;;;;;21.15;100.00;100289.16;1641919;87;21012;-88
2021/07/05 07:57:43;;;;;;;7.87;7.05;;;;;;;21.19;100.00;100288.31;1645053;86;21624;-83
2021/07/05 08:00:14;;;;;;;7.30;6.62;;;;;;;21.21;100.00;100292.41;1639211;87;21111;-86
2021/07/05 08:02:44;;;;;;;8.70;6.60;;;;;;;21.21;100.00;100300.81;1645105;87;21147;-81
2021/07/05 08:05:12;;;;;;;7.05;6.45;;;;;;;21.19;100.00;100306.25;1643558;87;21052;-84
2021/07/05 08:07:41;;;;;;;7.45;6.40;;;;;;;21.16;100.00;100313.70;1653490;85;21102;-88
2021/07/05 08:10:13;;;;;;;6.62;6.03;;;;;;;21.07;100.00;100312.44;1640815;85;21024;-86
2021/07/05 08:12:43;;;;;;;7.67;6.92;;;;;;;20.96;100.00;100318.11;1654961;85;21112;-89
2021/07/05 08:15:15;;;;;;;9.85;6.92;;;;;;;20.88;100.00;100316.04;1649201;86;20967;-90
2021/07/05 08:17:42;;;;;;;6.47;5.87;;;;;;;20.85;100.00;100319.03;1651072;86;21042;-85
2021/07/05 08:20:11;;;;;;;6.65;6.05;;;;;;;20.84;100.00;100305.52;1649465;86;21554;-81
2021/07/05 08:22:39;;;;;;;7.35;6.55;;;;;;;20.85;100.00;100305.84;1645949;83;21166;-84
2021/07/05 08:25:10;;;;;;;6.22;5.72;;;;;;;20.87;100.00;100307.80;1621429;87;41364;-83
2021/07/05 08:27:37;;;;;;;7.28;6.55;;;;;;;20.89;100.00;100301.37;1645193;85;21035;-88
2021/07/05 08:30:07;;;;;;;7.40;6.70;;;;;;;20.93;100.00;100304.48;1639574;87;21039;-86
2021/07/05 08:32:34;;;;;;;9.08;6.65;;;;;;;21.00;100.00;100301.44;1644765;85;21365;-84
2021/07/05 08:35:02;;;;;;;7.58;6.83;;;;;;;21.08;100.00;100307.48;1639354;87;21119;-86
2021/07/05 08:37:30;;;;;;;7.10;6.50;;;;;;;21.19;100.00;100314.70;1645540;86;21128;-80
2021/07/05 08:39:59;;;;;;;6.50;5.92;;;;;;;21.26;100.00;100313.79;1643351;87;21035;-86
2021/07/05 08:42:26;;;;;;;6.40;5.87;;;;;;;21.34;100.00;100317.69;1644953;85;21103;-86
2021/07/05 08:44:56;;;;;;;6.10;5.50;;;;;;;21.44;100.00;100313.48;1643522;87;21633;-83
2021/07/05 08:47:23;;;;;;;5.22;4.72;;;;;;;21.52;100.00;100318.17;1645172;86;21158;-85
2021/07/05 08:50:08;;;;;;;5.60;5.10;;;;;;;21.56;100.00;100315.50;1642710;87;21126;-85
2021/07/05 08:52:38;;;;;;;5.12;4.70;;;;;;;21.59;100.00;100323.55;1644869;85;21378;-80
2021/07/05 08:55:06;;;;;;;7.00;4.95;;;;;;;21.59;99.67;100318.27;1643401;87;21115;-85
2021/07/05 08:57:38;;;;;;;5.47;4.87;;;;;;;21.57;99.06;100311.02;1645575;86;21134;-84
2021/07/05 09:00:17;;;;;;;5.97;5.08;;;;;;;21.58;99.35;100321.91;1639110;87;21035;-83
2021/07/05 09:02:44;;;;;;;5.58;4.97;;;;;;;21.58;99.98;100323.22;1654455;84;22007;-79
2021/07/05 09:05:11;;;;;;;6.00;5.50;;;;;;;21.60;100.00;100324.68;1655406;86;21066;-83
2021/07/05 09:08:07;;;;;;;6.40;5.80;;;;;;;21.60;99.92;100325.20;1654849;84;21027;-84
2021/07/05 09:10:50;;;;;;;6.35;5.85;;;;;;;21.64;100.00;100325.14;1639993;86;21618;-84
2021/07/05 09:13:23;;;;;;;6.12;5.45;;;;;;;21.71;100.00;100332.67;1651650;86;21035;-80
2021/07/05 09:15:56;;;;;;;6.12;5.53;;;;;;;21.78;100.00;100318.24;1655270;86;21170;-86
2021/07/05 09:18:36;;;;;;;5.83;5.33;;;;;;;21.92;100.00;100316.14;1646125;85;21043;-83
2021/07/05 09:21:22;;;;;;;5.62;5.12;;;;;;;22.08;99.89;100323.89;1647535;85;21562;-83
2021/07/05 09:24:03;;;;;;;5.78;5.15;;;;;;;22.21;100.00;100324.55;1656782;85;21022;-86
2021/07/05 09:26:37;;;;;;;5.80;5.17;;;;;;;22.32;96.30;100318.28;1657234;86;21763;-86
2021/07/05 09:29:18;;;;;;;6.28;5.67;;;;;;;22.39;96.30;100307.79;1655897;84;21055;-85
2021/07/05 09:31:58;;;;;;;6.03;5.35;;;;;;;22.43;96.73;100305.89;1654743;86;20972;-81
2021/07/05 09:34:30;;;;;;;6.62;5.10;;;;;;;22.47;94.73;100309.81;1652071;85;20988;-85
2021/07/05 09:37:15;;;;;;;5.67;5.10;;;;;;;22.48;96.76;100310.63;1638937;86;21004;-80
2021/07/05 09:39:43;;;;;;;6.00;4.92;;;;;;;22.49;96.21;100312.28;1648266;86;21079;-84
2021/07/05 09:42:12;;;;;;;5.28;4.78;;;;;;;22.57;93.81;100309.01;1644024;87;21135;-81
2021/07/05 09:44:46;;;;;;;5.15;4.65;;;;;;;22.64;95.06;100307.27;1646881;85;21703;-82
2021/07/05 09:47:17;;;;;;;5.05;4.55;;;;;;;22.72;93.34;100294.97;1643680;87;21007;-87
2021/07/05 09:49:46;;;;;;;5.03;4.53;;;;;;;22.76;93.54;100310.25;1644983;85;21641;-85
2021/07/05 09:52:27;;;;;;;7.03;4.95;;;;;;;22.77;92.81;100307.11;1642884;87;21016;-89
2021/07/05 09:55:02;;;;;;;5.37;4.78;;;;;;;22.80;94.67;100304.08;1645672;85;21143;-84
2021/07/05 09:57:48;;;;;;;4.22;3.87;;;;;;;22.97;91.20;100297.55;1643029;86;21037;-85
2021/07/05 10:00:23;;;;;;;6.58;4.22;;;;;;;23.16;91.95;100308.81;1646064;86;21039;-83
2021/07/05 10:03:05;;;;;;;4.33;3.92;;;;;;;23.34;89.96;100306.50;1635094;87;21052;-85
2021/07/05 10:05:43;;;;;;;4.20;3.90;;;;;;;23.46;89.34;100308.13;1655280;85;21078;-82
2021/07/05 10:08:10;;;;;;;4.30;3.90;;;;;;;23.50;87.17;100320.81;1655290;86;21135;-81
2021/07/05 10:10:43;;;;;;;6.08;3.45;;;;;;;23.47;86.16;100313.75;1655233;86;21086;-85
2021/07/05 10:13:18;;;;;;;4.00;3.60;;;;;;;23.53;86.87;100311.16;1657672;85;21028;-83
2021/07/05 10:15:46;;;;;;;3.87;3.10;;;;;;;23.69;84.43;100308.20;1655291;85;21078;-82
2021/07/05 10:18:13;;;;;;;4.40;3.08;;;;;;;23.89;83.53;100308.33;1657447;86;21723;-85
2021/07/05 10:20:44;;;;;;;3.72;3.40;;;;;;;24.13;82.83;100303.88;1652846;85;21143;-80
2021/07/05 10:23:15;;;;;;;4.70;3.35;;;;;;;24.28;81.22;100298.95;1639246;86;21062;-82
2021/07/05 10:25:48;;;;;;;4.33;3.90;;;;;;;24.38;81.08;100308.69;1646260;84;21023;-82
2021/07/05 10:28:14;;;;;;;3.65;3.35;;;;;;;24.36;81.07;100312.84;1630712;87;21138;-84
2021/07/05 10:30:42;;;;;;;3.70;3.40;;;;;;;24.22;80.65;100311.97;1644918;85;21111;-83
2021/07/05 10:33:12;;;;;;;6.47;4.08;;;;;;;24.04;82.74;100319.61;1631493;86;21246;-87
2021/07/05 10:35:44;;;;;;;4.17;3.50;;;;;;;23.93;82.02;100318.83;1645659;85;21503;-85
2021/07/05 10:38:28;;;;;;;6.67;3.62;;;;;;;23.83;83.17;100321.04;1631227;87;21131;-83
2021/07/05 10:40:58;;;;;;;4.55;4.10;;;;;;;23.80;82.41;100320.61;1644741;86;21059;-84
2021/07/05 10:43:55;;;;;;;4.37;3.83;;;;;;;23.73;81.06;100325.04;1619781;86;21072;-86
2021/07/05 10:46:44;;;;;;;5.22;3.70;;;;;;;23.60;81.72;100330.57;1630516;86;21117;-86
2021/07/05 10:49:32;;;;;;;4.28;3.67;;;;;;;23.42;82.28;100323.59;1645140;87;21015;-83
2021/07/05 10:52:10;;;;;;;4.72;3.80;;;;;;;23.25;84.30;100324.05;1645125;87;20984;-89
2021/07/05 10:55:12;;;;;;;4.50;4.10;;;;;;;23.10;84.95;100321.48;1630754;88;20984;-82
2021/07/05 10:57:48;;;;;;;4.15;3.85;;;;;;;22.88;85.64;100326.47;1644875;87;21027;-86
2021/07/05 11:00:18;;;;;;;3.98;3.52;;;;;;;22.73;88.59;100326.50;1644924;87;21132;-83
2021/07/05 11:02:48;;;;;;;3.95;3.55;;;;;;;22.69;89.26;100329.73;1597588;88;21107;-83
2021/07/05 11:05:37;;;;;;;4.40;4.00;;;;;;;22.62;89.84;100323.80;1616736;88;21306;-85
2021/07/05 11:08:35;;;;;;;5.37;4.03;;;;;;;22.60;91.76;100327.65;1597253;87;21192;-82
2021/07/05 11:11:25;;;;;;;5.10;4.12;;;;;;;22.54;93.08;100325.75;1581246;87;21119;-80
2021/07/05 11:14:17;;;;;;;3.98;3.67;;;;;;;22.45;94.57;100330.34;1616787;87;21822;-87
2021/07/05 11:17:08;;;;;;;4.85;3.95;;;;;;;22.32;96.03;100322.25;1616754;88;21003;-87
2021/07/05 11:19:51;;;;;;;5.17;4.72;;;;;;;22.06;99.28;100329.34;1616868;88;21159;-84
2021/07/05 11:22:34;;;;;;;6.22;5.05;;;;;;;21.66;100.00;100332.90;1598274;87;21637;-83
2021/07/05 11:25:23;;;;;;;5.65;4.85;;;;;;;21.19;100.00;100331.33;1590077;88;21167;-80